Listado único de aspirantes (Periodo de valoración 31 octubre de 2021)


* Listado ordenado por Apellidos, Nombre. Recuerde que también puede ordenarlo por el Total Autobaremo

Listado único de aspirantes admitidos en turno libre en la bolsa de selección de personal estatutario temporal, categoría: Enfermera
Apellidos, Nombre Exp. SAS Auto. Exp. NO SAS Auto. Form. Auto. otros méritos Total Auto. Exp. SAS Baremo Exp. NO SAS Baremo Form. Baremo Otros méritos Punt. Total Baremo Fecha Act.
MARTÍNEZ PRADOS, LIDIA 0,000 3,000 33,000 3,600 39,600 0,000 3,000 33,000 3,400 39,400 15/12/2022
MARTÍNEZ PRIETO, Mª DEL MAR 15,000 30,600 32,000 0,050 77,650 15,000 30,300 32,000 0,050 77,350 15/12/2022
MARTÍNEZ PUENTE, MARIA VICTORIA 0,000 18,600 6,000 3,000 27,600 0,000 14,400 6,000 3,000 23,400 15/12/2022
MARTINEZ PUERTAS, CATALINA 0,000 5,600 30,000 0,000 35,600 0,000 0,300 30,000 0,000 30,300 15/12/2022
MARTÍNEZ PUERTO, LIDIA 21,000 12,000 36,000 0,350 69,350 21,000 12,000 36,000 0,000 69,000 15/12/2022
MARTÍNEZ PULIDO, MARÍA ISABEL 5,400 4,800 39,000 7,250 56,450 5,400 4,800 39,000 7,000 56,200 15/12/2022
MARTINEZ QUIROS, ELIZABETH 0,300 26,100 25,550 0,000 51,950 0,300 26,100 0,000 0,000 26,400 15/12/2022
MARTÍNEZ RAMÍREZ, ARIADNA 0,000 1,300 3,500 0,000 4,800 0,000 0,000 0,000 0,000 0,000 15/12/2022
MARTINEZ RAMOS, CRISTINA 70,000 0,000 36,000 0,125 106,125 70,000 0,000 36,000 0,050 106,050 15/12/2022
MARTÍNEZ RAMOS, MARÍA 0,000 3,300 36,000 0,400 39,700 0,000 1,500 2,500 0,000 4,000 15/12/2022
MARTÍNEZ RECHE, INMACULADA 19,500 37,900 36,000 7,375 100,775 19,500 36,000 36,000 6,325 97,825 15/12/2022
MARTINEZ RECHE, PATRICIA 0,000 12,300 31,500 4,700 48,500 0,000 10,800 3,000 0,500 14,300 15/12/2022
MARTINEZ REGUERO, ENCARNACIÓN 0,000 16,800 32,000 0,200 49,000 0,000 0,000 20,725 0,000 20,725 15/12/2022
MARTINEZ RESOLA, GLORIA 7,800 0,800 36,000 0,500 45,100 7,800 0,800 36,000 0,300 44,900 15/12/2022
MARTINEZ REY, SARA 3,600 0,000 30,000 0,000 33,600 3,600 0,000 30,000 0,000 33,600 15/12/2022
MARTINEZ REYES, MARIA DEL MAR 37,500 4,800 36,000 3,000 81,300 37,500 4,800 36,000 3,000 81,300 15/12/2022
MARTÍNEZ RIBAGORDA, VERÓNICA 0,000 1,200 33,000 0,800 35,000 0,000 0,300 28,375 0,200 28,875 15/12/2022
MARTINEZ RICA, DELIA 0,000 53,400 30,000 0,000 83,400 0,000 53,400 16,075 0,000 69,475 15/12/2022
MARTÍNEZ RICO, PATRICIA 0,900 0,000 36,000 0,000 36,900 0,900 0,000 36,000 0,000 36,900 15/12/2022
MARTINEZ RIOS MARTINEZ RIOS, MARÍA DE LOS ÁNGELES 0,000 10,800 35,000 0,000 45,800 0,000 10,800 35,000 0,000 45,800 15/12/2022
MARTINEZ RIPOLL, VIRGINIA 16,500 4,600 36,000 3,600 60,700 16,500 3,600 36,000 3,100 59,200 15/12/2022
MARTINEZ RIZO, JOSE ANGEL 0,000 24,900 18,250 0,000 43,150 0,000 24,900 16,250 0,000 41,150 15/12/2022
MARTÍNEZ ROBLES, LAURA 1,200 0,000 9,475 0,000 10,675 1,200 0,000 9,475 0,000 10,675 15/12/2022
MARTINEZ ROBLES, MARIA DOLORES 0,300 7,200 34,000 2,000 43,500 0,300 7,200 32,000 0,200 39,700 15/12/2022
MARTÍNEZ RODRÍGUEZ, ANA BELÉN 19,500 0,600 36,000 2,600 58,700 19,500 0,000 36,000 1,500 57,000 15/12/2022
MARTÍNEZ RODRÍGUEZ, DESIREE 0,600 4,600 35,000 9,500 49,700 0,600 0,000 33,000 1,300 34,900 15/12/2022
MARTINEZ RODRIGUEZ, HELENA 0,000 17,700 35,000 4,600 57,300 0,000 12,900 35,000 2,100 50,000 15/12/2022
MARTÍNEZ RODRÍGUEZ, JESÚS 5,700 1,200 26,250 0,800 33,950 5,700 1,200 26,250 0,800 33,950 15/12/2022
MARTINEZ RODRIGUEZ, JUAN MANUEL 6,900 28,200 36,000 0,300 71,400 6,900 27,400 36,000 0,000 70,300 15/12/2022
MARTINEZ RODRIGUEZ, Mª ANGELES 0,000 65,100 36,000 7,625 108,725 0,000 56,700 36,000 5,825 98,525 15/12/2022
MARTÍNEZ RODRÍGUEZ, Mª MERCEDES 61,100 0,750 39,000 6,400 107,250 61,100 0,750 39,000 6,400 107,250 15/12/2022
MARTINEZ RODRIGUEZ, MANUEL JACOBO 0,000 67,800 36,000 0,000 103,800 0,000 61,800 35,000 0,000 96,800 15/12/2022
MARTINEZ RODRIGUEZ, MARIA DEL ROCIO 19,500 32,100 36,000 15,000 102,600 19,500 32,100 36,000 4,000 91,600 15/12/2022
MARTÍNEZ RODRÍGUEZ, MARÍA PATRICIA 15,900 14,700 36,000 20,000 86,600 15,900 14,700 36,000 3,000 69,600 15/12/2022
MARTINEZ RODRIGUEZ, MARIA SIERRA 25,200 49,300 36,000 0,000 106,000 25,200 48,500 36,000 0,000 106,000 15/12/2022
MARTÍNEZ RODRÍGUEZ, NURIA 0,900 0,000 25,750 0,000 26,650 0,900 0,000 24,250 0,000 25,150 15/12/2022
MARTÍNEZ ROLDÁN, LAURA 10,200 0,600 36,000 2,400 49,200 10,200 0,000 36,000 2,000 48,200 15/12/2022
MARTÍNEZ ROMÁN, ANA 13,200 5,400 36,000 4,000 58,600 13,200 5,400 36,000 2,500 57,100 15/12/2022
MARTINEZ ROMAN, ANA ISABEL 0,000 21,900 34,000 0,000 55,900 0,000 3,600 25,000 0,000 28,600 15/12/2022
MARTINEZ ROMAN, MARTA 22,800 1,400 36,000 6,550 66,750 22,800 0,000 36,000 6,550 65,350 15/12/2022
MARTÍNEZ ROMERO, CARLOS 6,600 11,550 36,000 6,000 60,150 6,600 4,350 36,000 2,400 49,350 15/12/2022
MARTÍNEZ ROMERO, EMILIO 0,000 12,000 33,000 8,500 53,500 0,000 0,000 31,500 0,500 32,000 15/12/2022
MARTÍNEZ ROMERO, JOSÉ ANTONIO 8,700 2,400 39,000 7,375 57,475 8,700 1,500 39,000 6,725 55,925 15/12/2022
MARTINEZ ROSA, RAUL 2,700 42,300 36,000 0,050 81,050 2,700 42,300 36,000 0,000 81,000 15/12/2022
MARTÍNEZ RUBIO, MARGARITA 13,800 0,000 39,000 3,600 56,400 13,800 0,000 39,000 3,000 55,800 15/12/2022
MARTÍNEZ RUI-DÍAZ, ADELINA 0,000 0,000 0,000 0,000 0,000 0,000 0,000 0,000 0,000 0,000 15/12/2022
MARTINEZ RUIZ, ABRAHAM 1,200 10,800 36,000 3,025 51,025 1,200 10,200 35,000 3,000 49,400 15/12/2022
MARTÍNEZ RUIZ, ANA 0,000 6,600 33,000 3,000 42,600 0,000 6,600 3,000 3,000 12,600 15/12/2022
MARTINEZ RUIZ, EULALIA 0,900 0,000 9,950 0,000 10,850 0,900 0,000 9,950 0,000 10,850 15/12/2022
MARTINEZ RUIZ, LAURA 1,200 0,000 32,000 0,000 33,200 1,200 0,000 32,000 0,000 33,200 15/12/2022
MARTINEZ RUIZ, MARIA 0,000 0,000 19,800 3,000 22,800 0,000 0,000 8,550 3,000 11,550 15/12/2022
MARTÍNEZ RUIZ, MARTA 0,000 24,000 32,000 3,000 59,000 0,000 18,600 32,000 3,000 53,600 15/12/2022
MARTÍNEZ RUIZ, NURIA 0,600 3,900 36,000 0,000 40,500 0,600 1,500 36,000 0,000 38,100 15/12/2022
MARTINEZ RUIZ, ROSA MARIA 0,000 2,700 33,000 0,000 35,700 0,000 0,900 33,000 0,000 33,900 15/12/2022
MARTINEZ RUMBO, CRISTINA 0,000 0,900 33,000 0,000 33,900 0,000 0,000 0,000 0,000 0,000 15/12/2022
MARTINEZ RUSTARAZO, ANTONIA 11,700 10,800 36,000 3,000 61,500 11,700 10,500 36,000 3,000 61,200 15/12/2022
MARTINEZ SABIO, MARIA DEL CARMEN 15,300 2,500 36,000 1,000 54,800 15,300 0,000 36,000 1,000 52,300 15/12/2022
MARTINEZ SACO, CARMEN MARIA 6,300 4,650 32,000 0,000 42,950 6,300 4,650 25,000 0,000 35,950 15/12/2022
MARTINEZ SAEZ, MARIA DEL MAR 3,000 9,900 36,000 0,000 48,900 3,000 9,900 36,000 0,000 48,900 15/12/2022
MARTINEZ SALAS, ANTONIO JOSE 0,600 0,150 33,000 3,225 36,975 0,600 0,150 33,000 3,050 36,800 15/12/2022
MARTÍNEZ SALAS, DAVID 0,000 0,600 34,000 0,000 34,600 0,000 0,000 34,000 0,000 34,000 15/12/2022
MARTÍNEZ SALINAS, NATALIA 1,200 0,000 29,625 3,000 33,825 1,200 0,000 29,625 3,000 33,825 15/12/2022
MARTINEZ SALMERON, SILVIA 0,900 1,100 9,575 0,000 11,575 0,900 0,000 7,500 0,000 8,400 15/12/2022
MARTÍNEZ SALOMÓN, ANA 20,700 23,800 39,000 10,400 93,900 20,700 20,500 39,000 5,800 86,000 15/12/2022
MARTÍNEZ SAMPEDRO, MARINA 0,000 0,000 12,375 0,000 12,375 0,000 0,000 0,000 0,000 0,000 15/12/2022
MARTÍNEZ SAMPEDRO, PILAR 0,000 24,000 36,000 2,300 62,300 0,000 24,000 36,000 1,800 61,800 15/12/2022
MARTINEZ SAN MARTIN, JENNYFER 0,000 1,250 6,000 0,000 7,250 0,000 0,000 0,000 0,000 0,000 15/12/2022
MARTINEZ SANCHEZ, ALBA 0,000 6,300 32,000 0,000 38,300 0,000 2,700 32,000 0,000 34,700 15/12/2022
MARTINEZ SANCHEZ, AMANDA INES 18,600 7,600 34,000 0,000 60,200 18,600 7,500 34,000 0,000 60,100 15/12/2022
MARTINEZ SANCHEZ, ISABEL 3,000 4,800 36,000 1,900 45,700 3,000 0,600 36,000 1,000 40,600 15/12/2022
MARTINEZ SANCHEZ, JAIME 0,000 14,700 32,000 0,000 46,700 0,000 14,700 32,000 0,000 46,700 15/12/2022
MARTINEZ SANCHEZ, JOSE ANTONIO 39,000 2,700 36,000 9,250 86,950 39,000 0,600 36,000 9,250 84,850 15/12/2022
MARTINEZ SANCHEZ, JOSE JESUS 0,000 50,100 28,850 0,000 78,950 0,000 20,700 11,750 0,000 32,450 15/12/2022
MARTÍNEZ SÁNCHEZ, JUAN MANUEL 0,000 0,000 33,000 0,000 33,000 0,000 0,000 28,500 0,000 28,500 15/12/2022
MARTÍNEZ SÁNCHEZ, JUAN PABLO 6,900 0,000 36,000 0,000 42,900 6,900 0,000 36,000 0,000 42,900 15/12/2022
MARTINEZ SANCHEZ, MARIA DOLORES 0,900 59,400 33,000 3,175 96,475 0,900 59,400 33,000 3,125 96,425 15/12/2022
MARTINEZ SANCHEZ, MARIA RHUT 0,000 0,300 29,800 7,350 37,450 0,000 0,300 6,000 0,150 6,450 15/12/2022
MARTINEZ SANCHEZ, PALOMA 4,800 7,200 34,000 0,900 46,900 4,800 0,000 34,000 0,900 39,700 15/12/2022
MARTINEZ SANCHEZ, PEDRO JAVIER 0,000 14,100 33,000 1,400 48,500 0,000 10,500 33,000 1,100 44,600 15/12/2022
MARTÍNEZ SÁNCHEZ, REYES 0,000 2,100 32,000 0,000 34,100 0,000 0,000 1,250 0,000 1,250 15/12/2022
MARTINEZ SANCHEZ, SARA 1,200 9,000 36,000 0,000 46,200 1,200 9,000 34,000 0,000 44,200 15/12/2022
MARTÍNEZ SÁNCHEZ-ESCARICHE, MYRIAM 1,200 0,000 30,000 0,000 31,200 1,200 0,000 30,000 0,000 31,200 15/12/2022
MARTINEZ SANDOVAL, MARÍA LUISA 0,000 0,000 23,500 0,050 23,550 0,000 0,000 5,750 0,000 5,750 15/12/2022
MARTÍNEZ SANTOS, LORENA Mª 0,000 29,200 34,000 4,300 67,500 0,000 27,400 21,090 4,000 52,490 15/12/2022
MARTÍNEZ SANTOS, MARÍA JOSÉ 67,200 12,600 33,000 6,400 109,400 67,200 12,600 33,000 6,400 109,400 15/12/2022
MARTÍNEZ SARRIÓN, ANA ISABEL 0,600 5,600 35,000 0,000 41,200 0,600 0,000 23,575 0,000 24,175 15/12/2022
MARTÍNEZ SEPÚLVEDA, FRANCISCO JESÚS 0,000 11,400 18,000 0,000 29,400 0,000 4,200 18,000 0,000 22,200 15/12/2022
MARTINEZ SERRANO, ANA 5,400 0,900 12,500 0,000 18,800 5,400 0,000 8,250 0,000 13,650 15/12/2022
MARTINEZ SERRANO, CAROLINA 28,200 0,900 36,000 1,800 66,900 28,200 0,900 36,000 0,000 65,100 15/12/2022
MARTINEZ SERRANO, JOSE MIGUEL 0,000 39,300 26,500 0,000 65,800 0,000 12,900 25,500 0,000 38,400 15/12/2022
MARTÍNEZ SERRANO, NOELIA 11,700 5,100 36,000 2,600 55,400 11,700 5,100 36,000 0,900 53,700 15/12/2022
MARTINEZ SIMON, ELVIRA 0,000 16,200 36,000 9,500 61,700 0,000 1,200 33,000 9,200 43,400 15/12/2022
MARTÍNEZ SIMÓN, MARÍA DEL MAR 15,900 1,500 39,000 0,000 56,400 15,900 0,900 39,000 0,000 55,800 15/12/2022
MARTINEZ SOLER, CANDELA 1,200 0,000 18,050 0,000 19,250 1,200 0,000 18,050 0,000 19,250 15/12/2022
MARTINEZ SORIANO, DAVINIA 22,500 0,000 36,000 0,500 59,000 22,500 0,000 36,000 0,500 59,000 15/12/2022
MARTÍNEZ SORIANO, MARIANO 0,150 0,000 17,125 0,000 17,275 0,150 0,000 15,250 0,000 15,400 15/12/2022
MARTÍNEZ SOTO, LAURA 0,900 0,000 30,000 0,000 30,900 0,900 0,000 30,000 0,000 30,900 15/12/2022
MARTÍNEZ SOTO, YOLANDA 0,900 15,300 32,000 0,000 48,200 0,900 0,000 29,750 0,000 30,650 15/12/2022
MARTÍNEZ SUÁREZ, ALMUDENA 4,800 3,500 17,000 8,250 33,550 4,800 0,000 15,000 0,200 20,000 15/12/2022
MARTINEZ TEJADA CAÑIZARES, MARIA ELVIRA 0,000 24,400 35,000 0,000 59,400 0,000 24,400 35,000 0,000 59,400 15/12/2022
MARTINEZ TELLEZ, MARIA DEL CARMEN 15,300 1,800 36,000 2,500 55,600 15,300 1,800 36,000 2,500 55,600 15/12/2022
MARTÍNEZ TEMBLADOR, IRENE 26,100 3,000 36,000 17,500 82,600 26,100 3,000 36,000 0,100 65,200 15/12/2022
MARTINEZ TOBOSO, ROCIO 0,000 13,200 30,000 0,000 43,200 0,000 3,900 30,000 0,000 33,900 15/12/2022
MARTINEZ TODOLI, AIRENA 0,000 0,000 5,275 0,000 5,275 0,000 0,000 0,300 0,000 0,300 15/12/2022
MARTÍNEZ TOQUERO, JORGE 0,000 6,000 33,000 0,175 39,175 0,000 0,000 14,550 0,000 14,550 15/12/2022
MARTINEZ TORNEL, Mª VICTORIA 0,000 2,100 20,000 0,000 22,100 0,000 0,000 20,000 0,000 20,000 15/12/2022
MARTINEZ TORREJON, PATRICIA 21,900 5,050 36,000 0,200 63,150 21,900 5,050 36,000 0,200 63,150 15/12/2022
MARTINEZ TORRENTE, Mª CARMEN 0,900 26,100 30,000 0,300 57,300 0,900 5,400 28,125 0,000 34,425 15/12/2022
MARTINEZ TORRES, ASCENSION CAROLINA 4,800 57,900 33,000 0,000 95,700 4,800 0,000 33,000 0,000 37,800 15/12/2022
MARTINEZ TORRES, ESPERANZA 4,750 3,700 42,000 4,700 55,150 4,750 3,700 42,000 1,900 52,350 15/12/2022
MARTINEZ TORTOSA, ISABEL 0,600 4,100 39,000 2,000 45,700 0,600 2,900 39,000 2,000 44,500 15/12/2022
MARTINEZ TROYANO, ANGEL 7,800 3,000 33,000 0,500 44,300 7,800 0,000 33,000 0,500 41,300 15/12/2022
MARTÍNEZ TUÑÓN, CRISTINA 0,000 9,300 34,000 0,000 43,300 0,000 9,300 34,000 0,000 43,300 15/12/2022
MARTÍNEZ TUÑÓN, MARÍA JOSÉ 0,000 0,600 30,000 0,000 30,600 0,000 0,600 30,000 0,000 30,600 15/12/2022
MARTINEZ UCEDA, JOSE LUIS 1,200 33,750 36,000 10,900 81,850 1,200 33,000 36,000 8,800 79,000 15/12/2022
MARTINEZ URBANO, JULIA 0,000 1,350 5,350 0,000 6,700 0,000 0,900 4,100 0,000 5,000 15/12/2022
MARTINEZ VALDIVIA, ANTONIO 0,000 9,600 36,000 1,200 46,800 0,000 9,600 36,000 0,800 46,400 15/12/2022
MARTINEZ VALENZUELA, RAQUEL 0,300 7,500 30,000 0,000 37,800 0,300 1,800 15,075 0,000 17,175 15/12/2022
MARTINEZ VALERO, ANA PILAR 0,000 8,300 33,000 4,850 46,150 0,000 2,100 24,150 3,100 29,350 15/12/2022
MARTÍNEZ VALLEJO, ISABEL 4,200 0,000 36,000 3,000 43,200 4,200 0,000 23,250 3,000 30,450 15/12/2022
MARTÍNEZ VALLEJO, MIGUEL ÁNGEL 0,300 12,600 36,000 1,500 50,400 0,300 12,600 36,000 1,500 50,400 15/12/2022
MARTINEZ VARELA, Mª VICTORIA 7,500 6,150 36,000 3,000 52,650 7,500 5,100 36,000 3,000 51,600 15/12/2022
MARTINEZ VARGAS, LAURA 0,900 0,000 36,000 0,000 36,900 0,900 0,000 33,800 0,000 34,700 15/12/2022
MARTÍNEZ VÁZQUEZ, BEATRIZ 0,000 1,050 30,000 0,000 31,050 0,000 0,000 30,000 0,000 30,000 15/12/2022
MARTINEZ VAZQUEZ, PRISCILA 0,600 3,800 30,000 0,000 34,400 0,600 0,000 18,125 0,000 18,725 15/12/2022
MARTÍNEZ VÁZQUEZ, SERGIO 0,900 14,100 39,000 7,850 61,850 0,900 9,900 39,000 3,250 53,050 15/12/2022
MARTÍNEZ VEGA, ROSARIO 3,900 20,100 27,525 0,000 51,525 3,900 20,100 15,725 0,000 39,725 15/12/2022
MARTINEZ VERA, MATILDE 0,000 5,100 33,000 0,950 39,050 0,000 0,000 3,175 0,400 3,575 15/12/2022
MARTÍNEZ VERA, MIRIAM 0,000 35,400 33,000 0,100 68,500 0,000 32,700 17,300 0,000 50,000 15/12/2022
MARTINEZ VICIANA, PABLO 1,200 21,300 35,000 0,050 57,550 1,200 14,300 35,000 0,000 50,500 15/12/2022
MARTINEZ VIDA, NURIA 0,000 0,000 8,550 0,000 8,550 0,000 0,000 7,500 0,000 7,500 15/12/2022
MARTINEZ VIEJO, ANTONIA R 10,500 5,100 36,000 0,500 52,100 10,500 0,000 36,000 0,500 47,000 15/12/2022
MARTINEZ VIEJO, JESUS 59,700 0,000 36,000 0,000 95,700 59,700 0,000 36,000 0,000 95,700 15/12/2022
MARTINEZ VILAR, ANA DEL ROSARIO 60,600 9,300 36,000 4,550 110,450 60,600 9,300 36,000 1,550 107,450 15/12/2022
MARTÍNEZ VÍLCHEZ, DANIEL 5,400 0,000 29,500 0,000 34,900 5,400 0,000 26,500 0,000 31,900 15/12/2022
MARTINEZ VILCHEZ, SANDRINE 20,400 9,600 39,000 0,200 69,200 20,400 0,000 39,000 0,100 59,500 15/12/2022
MARTÍNEZ VÍLCHEZ, VERÓNICA 17,400 16,800 36,000 0,100 70,300 17,400 12,300 36,000 0,000 65,700 15/12/2022
MARTINEZ VILLALBA, Mª ANGELES 14,400 0,900 39,000 8,425 62,725 14,400 0,900 39,000 8,300 62,600 15/12/2022
MARTÍNEZ VILLAR, CAROLINA 48,900 5,550 33,000 3,100 90,550 48,900 4,950 33,000 3,100 89,950 15/12/2022
MARTÍNEZ YÉBENES, ROCÍO 2,200 1,350 36,000 8,000 47,550 2,200 0,000 36,000 4,300 42,500 15/12/2022
MARTINEZ YEGLES, ISABEL 1,500 25,800 36,000 4,500 67,800 1,500 25,800 36,000 3,100 66,400 15/12/2022
MARTINEZ YELO, ISMAEL 0,000 30,300 17,125 0,000 47,425 0,000 3,000 10,000 0,000 13,000 15/12/2022
MARTINEZ ZAFRA, JOSÉ 0,000 0,900 20,750 0,000 21,650 0,000 0,900 0,000 0,000 0,900 15/12/2022
MARTINEZ-ABARCA LOPEZ, RAQUEL 0,000 42,900 32,000 0,000 74,900 0,000 4,800 8,025 0,000 12,825 15/12/2022
MARTINEZ-CABAÑAS RODRIGUEZ, BLANCA 11,700 1,350 36,000 6,000 55,050 11,700 1,200 36,000 6,000 54,900 15/12/2022
MARTÍNEZ-DARVE SANZ, ELENA 1,200 0,000 3,225 0,000 4,425 1,200 0,000 1,000 0,000 2,200 15/12/2022
MARTINEZ-QUINTANILLA JODAR, NOELIA 0,000 10,800 34,000 0,050 44,850 0,000 10,800 34,000 0,000 44,800 15/12/2022
MARTIN-LAGOS MALDONADO, ANA 0,000 18,000 33,000 0,000 51,000 0,000 17,700 33,000 0,000 50,700 15/12/2022
MARTÍN-NIÑO FERNÁNDEZ, MIGUEL 0,000 6,000 30,000 0,000 36,000 0,000 5,700 30,000 0,000 35,700 15/12/2022
MARTINO VIZCARRONDO, ENRIQUE 6,300 3,600 36,000 1,300 47,200 6,300 1,200 36,000 0,000 43,500 15/12/2022
MARTÍN-PORTUGUÉS MUÑIZ, JORGE 0,000 15,600 36,000 7,900 59,500 0,000 9,300 36,000 3,900 49,200 15/12/2022
MARTÍN-PORTUGUÉS RUIZ DE PASCUAL, MANUEL 0,000 31,500 36,000 1,000 68,500 0,000 31,200 34,500 1,000 66,700 15/12/2022
MARTÍN-ROMO MEJÍAS, INMACULADA 31,200 0,000 36,000 2,100 69,300 31,200 0,000 36,000 1,600 68,800 15/12/2022
MARTIN-ROMO PEÑA, IRENE 0,000 17,700 0,000 0,000 17,700 0,000 0,000 0,000 0,000 0,000 15/12/2022
MARTINS CARVALHO COELHO, THABATA 0,000 15,900 32,000 2,400 50,300 0,000 15,600 25,300 0,500 41,400 15/12/2022
MARTINS DA SILVA, GABRIELA MÓNICA 0,000 23,100 30,000 0,000 53,100 0,000 23,100 30,000 0,000 53,100 15/12/2022
MARTINS DOS SANTOS, MARIANA 3,600 0,000 36,000 0,100 39,700 3,600 0,000 36,000 0,100 39,700 15/12/2022
MARTINS FURSE, DANIEL MICHAEL 0,900 0,750 34,000 0,000 35,650 0,900 0,000 34,000 0,000 34,900 15/12/2022
MARTOS AGUILERA, ANA MARIA 48,300 6,300 36,000 10,300 100,900 48,300 6,300 36,000 0,000 90,600 15/12/2022
MARTOS ALBA, ELISA ISABEL 1,200 84,600 28,925 0,050 98,975 1,200 33,600 25,925 0,000 60,725 15/12/2022
MARTOS ALMAGRO, AURORA 2,400 37,500 30,000 3,400 73,300 2,400 37,500 30,000 3,300 73,200 15/12/2022
MARTOS ALMAGRO, MARIA JOSEFA 0,000 47,100 30,000 6,100 83,200 0,000 43,500 30,000 6,100 79,600 15/12/2022
MARTOS ARRABAL, EVA MARIA 3,300 4,700 33,000 0,000 41,000 3,300 0,000 27,750 0,000 31,050 15/12/2022
MARTOS BASSO, ROSALIA 0,000 2,200 39,000 8,875 50,075 0,000 0,800 38,000 6,550 45,350 15/12/2022
MARTOS BENITEZ, MERCEDES 4,800 13,400 36,000 0,000 54,200 4,800 12,600 12,900 0,000 30,300 15/12/2022
MARTOS BENITEZ, ROCIO 0,000 0,000 19,250 0,000 19,250 0,000 0,000 15,850 0,000 15,850 15/12/2022
MARTOS BERBEL, PEDRO MARÍA 0,000 6,300 34,000 0,000 40,300 0,000 6,300 34,000 0,000 40,300 15/12/2022
MARTOS BRAVO, MANUELA 0,900 15,600 36,000 1,600 54,100 0,900 15,600 36,000 1,500 54,000 15/12/2022
MARTOS CABRERA, MARÍA BEGOÑA 14,700 1,050 39,000 9,600 64,350 14,700 0,000 39,000 8,200 61,900 15/12/2022
MARTOS CALERO, CLAUDIA 1,200 0,000 33,000 3,000 37,200 1,200 0,000 30,000 3,000 34,200 15/12/2022
MARTOS CORPAS, MARÍA 1,800 5,400 32,000 1,000 40,200 1,800 3,000 32,000 0,000 36,800 15/12/2022
MARTOS ENRIQUE, MARÍA 9,000 0,000 36,000 4,800 49,800 9,000 0,000 36,000 3,500 48,500 15/12/2022
MARTOS ESPEJO, MIRIAM 3,000 0,000 32,000 0,000 35,000 3,000 0,000 32,000 0,000 35,000 15/12/2022
MARTOS FERNÁNDEZ, DÁMARIS 0,000 19,200 30,000 3,000 52,200 0,000 19,200 30,000 3,000 52,200 15/12/2022
MARTOS GARCÍA, MARÍA AURORA 5,400 4,800 36,000 7,000 53,200 5,400 4,800 35,000 0,000 45,200 15/12/2022
MARTOS GIJÓN, GABRIELA 0,000 19,400 36,000 0,000 55,400 0,000 19,200 28,750 0,000 47,950 15/12/2022
MARTOS GUTIERREZ, LAURA 0,900 20,850 20,275 0,000 42,025 0,900 0,000 13,650 0,000 14,550 15/12/2022
MARTOS JIMENEZ, LAURA 5,700 3,750 33,000 0,700 43,150 5,700 3,000 33,000 0,700 42,400 15/12/2022
MARTOS JIMÉNEZ, SARA 15,900 0,000 39,000 9,200 64,100 15,900 0,000 39,000 8,700 63,600 15/12/2022
MARTOS JURADO, MARÍA 70,000 0,000 33,000 0,025 103,025 70,000 0,000 33,000 0,000 103,000 15/12/2022
MARTOS LENDINEZ, BELEN 4,200 4,200 36,000 0,000 44,400 4,200 4,200 36,000 0,000 44,400 15/12/2022
MARTOS LINARES, MARÍA DEL CARMEN 10,800 0,600 36,000 0,000 47,400 10,800 0,600 36,000 0,000 47,400 15/12/2022
MARTOS LIRIO, DIEGO JESÚS 0,600 10,500 36,000 0,500 47,600 0,600 6,000 36,000 0,500 43,100 15/12/2022
MARTOS LUQUE, MARÍA JOSÉ 9,900 4,400 36,000 3,000 53,300 9,900 0,600 34,000 3,000 47,500 15/12/2022
MARTOS MARTOS, MARIA ESTHER 43,500 0,000 36,000 4,700 84,200 43,500 0,000 36,000 4,700 84,200 15/12/2022
MARTOS MILLÁN, CARMEN MARIA 0,000 15,900 35,000 0,000 50,900 0,000 15,300 35,000 0,000 50,300 15/12/2022
MARTOS MOLINA, ANA IRENE 4,500 0,000 16,150 0,000 20,650 4,500 0,000 12,750 0,000 17,250 15/12/2022
MARTOS MONTERO, ROSA MARÍA 3,000 72,000 15,100 6,000 91,100 3,000 72,000 14,100 6,000 90,100 15/12/2022
MARTOS NAVARRO, CRISTINA 7,500 8,800 32,000 0,000 48,300 7,500 8,800 32,000 0,000 48,300 15/12/2022
MARTOS NÚÑEZ, NATALIA 27,900 3,600 36,000 0,500 68,000 27,900 3,600 36,000 0,500 68,000 15/12/2022
MARTOS ORTEGA, MARIA 0,600 0,000 32,000 0,000 32,600 0,600 0,000 31,915 0,000 32,515 15/12/2022
MARTOS PADILLA, MARIA 7,200 2,400 35,000 3,000 47,600 7,200 0,000 35,000 3,000 45,200 15/12/2022
MARTOS PERAL, ABRAHAM 0,600 12,000 36,000 2,000 50,600 0,600 12,000 36,000 2,000 50,600 15/12/2022
MARTOS PÉREZ, MIRIAM 0,000 8,700 9,775 0,000 18,475 0,000 4,200 7,875 0,000 12,075 15/12/2022
MARTOS PÉREZ, PABLO ADRIÁN 4,800 3,400 36,000 4,500 48,700 4,800 3,400 36,000 3,500 47,700 15/12/2022
MARTOS PRIETO, LOURDES 51,000 9,600 36,000 4,000 100,600 51,000 0,600 36,000 3,000 89,100 15/12/2022
MARTOS RASCÓN, ISABEL 0,000 1,500 5,650 0,000 7,150 0,000 0,000 2,500 0,000 2,500 15/12/2022
MARTOS SALCEDO, ALICIA 0,000 24,600 30,000 0,100 54,700 0,000 24,600 30,000 0,000 54,600 15/12/2022
MARTOS SANCHEZ, ANA ISABEL 42,000 29,100 32,000 1,000 103,000 42,000 29,100 32,000 1,000 103,000 15/12/2022
MARTOS SANCHEZ, ANA MARIA 27,900 11,850 36,000 2,100 77,850 27,900 0,900 36,000 2,100 66,900 15/12/2022

* Los candidatos marcados con un asterisco no alcanzan la nota mínima exigida una vez baremados

- Al posicionarse sobre el número de página le aparecerá el rango alfabético de apellidos, nombre que contiene dicha página

[1]  [2]  [3]  [4]  [5]  [6]  [7]  [8]  [9]  [10]  [11]  [12]  [13]  [14]  [15]  [16]  [17]  [18]  [19]  [20]  [21]  [22]  [23]  [24]  [25]  [26]  [27]  [28]  [29]  [30]  [31]  [32]  [33]  [34]  [35]  [36]  [37]  [38]  [39]  [40]  [41]  [42]  [43]  [44]  [45]  [46]  [47]  [48]  [49]  [50]  [51]  [52]  [53]  [54]  [55]  [56]  [57]  [58]  [59]  [60]  [61]  [62]  [63]  [64]  [65]  [66]  [67]  [68]  [69]  [70]  [71]  [72]  [73]  [74]  [75]  [76]  [77]  [78]  [79]  [80]  [81]  [82]  [83]  [84]  [85]  [86]  [87]  [88]  [89]  [90]  [91]  [92]  [93]  [94]  [95]  [96]  [97]  [98]  [99]  [100]  [101]  [102]  [103]  [104]  [105]  [106]  [107]  [108]  [109]  [110]  [111]  [112]  [113]  [114]  [115]  [116]  [117]  [118]  [119]  [120]  [121]  [122]  [123]  [124]  [125]  [126]  [127]  [128]  [129]  [130]  [131]  [132]  [133]  [134]  [135]  [136]  [137]  [138]  [139]  [140]  [141]  [142]  [143]  [144]  [145]  [146]  [147]  [148]  [149]  [150]  [151]  [152]  [153]  [154]  [155]  [156]  [157]  [158]  [159]  [160]  [161]  [162]  [163]  [164]  [165]  [166]  [167]  [168]  [169]  [170]  [171]  [172]  [173]  [174]  [175]  [176]  [177]  [178]  [179]  [180]  [181]  [182]  [183]  [184]  [185]  [186]  [187]  [188]  [189]  [190]  [191]  [192]  [193]  [194]  [195]  [196]  [197]  [198]  [199]  [200]  [201]  [202] 


Color de candidatos/as que por autobaremo alcanzan puntuación mínima para formar parte de la bolsa Candidatos/as que por autobaremo alcanzan puntuación mínima para formar parte de la bolsa

Color de Candidatos/as que no alcanzan puntuación mínima para formar parte de la bolsa Candidatos/as que no alcanzan puntuación mínima para formar parte de la bolsa



[Volver]